createdAt,value
2022-12-02T00:02:09.007Z,1.50
2022-12-02T00:05:13.659Z,1.43
2022-12-02T00:08:04.794Z,1.37
2022-12-02T00:10:46.707Z,1.30
2022-12-02T00:13:57.950Z,1.29
2022-12-02T00:16:32.486Z,1.27
2022-12-02T00:19:27.487Z,1.24
2022-12-02T00:22:27.499Z,1.25
2022-12-02T00:24:57.191Z,1.21
2022-12-02T00:27:36.969Z,1.16
2022-12-02T00:30:17.323Z,1.10
2022-12-02T00:33:03.378Z,1.02
2022-12-02T00:35:50.415Z,0.94
2022-12-02T00:38:38.773Z,0.91
2022-12-02T00:41:27.525Z,0.88
2022-12-02T00:44:20.471Z,0.85
2022-12-02T00:47:22.656Z,0.81
2022-12-02T00:50:12.969Z,0.80
2022-12-02T00:52:49.504Z,0.82
2022-12-02T00:55:33.153Z,0.81
2022-12-02T00:58:21.058Z,0.78
2022-12-02T01:00:56.996Z,0.77
2022-12-02T01:03:29.809Z,0.74
2022-12-02T01:06:04.349Z,0.72
2022-12-02T01:08:39.291Z,0.72
2022-12-02T01:11:10.599Z,0.69
2022-12-02T01:13:42.960Z,0.69
2022-12-02T01:16:13.384Z,0.69
2022-12-02T01:18:53.063Z,0.71
2022-12-02T01:21:43.515Z,0.64
2022-12-02T01:24:37.863Z,0.61
2022-12-02T01:27:29.850Z,0.56
2022-12-02T01:30:12.169Z,0.51
2022-12-02T01:32:50.809Z,0.53
2022-12-02T01:35:20.826Z,0.50
2022-12-02T01:41:11.253Z,0.50
2022-12-02T01:43:54.667Z,0.45
2022-12-02T01:46:58.770Z,0.41
2022-12-02T01:49:52.569Z,0.38
2022-12-02T01:52:37.194Z,0.37
2022-12-02T01:55:17.135Z,0.39
2022-12-02T01:58:28.758Z,0.37
2022-12-02T02:01:28.729Z,0.34
2022-12-02T02:04:09.224Z,0.37
2022-12-02T02:07:03.998Z,0.40
2022-12-02T02:10:02.127Z,0.40
2022-12-02T02:12:46.607Z,0.42
2022-12-02T02:15:59.748Z,0.41
2022-12-02T02:18:50.823Z,0.42
2022-12-02T02:21:32.537Z,0.46
2022-12-02T02:24:18.392Z,0.49
2022-12-02T02:27:09.178Z,0.46
2022-12-02T02:29:51.179Z,0.45
2022-12-02T02:32:26.938Z,0.45
2022-12-02T02:35:16.981Z,0.47
2022-12-02T02:38:04.878Z,0.39
2022-12-02T02:40:54.386Z,0.37
2022-12-02T02:43:37.921Z,0.35
2022-12-02T02:46:16.655Z,0.36
2022-12-02T02:48:53.157Z,0.36
2022-12-02T02:52:16.946Z,0.36
2022-12-02T02:54:38.513Z,0.38
2022-12-02T02:57:15.601Z,0.39
2022-12-02T02:59:50.789Z,0.36
2022-12-02T03:02:32.875Z,0.36
2022-12-02T03:05:06.415Z,0.37
2022-12-02T03:07:35.774Z,0.39
2022-12-02T03:10:20.448Z,0.38
2022-12-02T03:12:55.771Z,0.37
2022-12-02T03:15:33.580Z,0.41
2022-12-02T03:18:25.273Z,0.40
2022-12-02T03:20:57.644Z,0.34
2022-12-02T03:23:34.558Z,0.33
2022-12-02T03:26:10.867Z,0.34
2022-12-02T03:28:48.290Z,0.36
2022-12-02T03:31:23.844Z,0.38
2022-12-02T03:34:11.197Z,0.40
2022-12-02T03:36:44.269Z,0.38
2022-12-02T03:39:16.310Z,0.39
2022-12-02T03:41:50.397Z,0.37
2022-12-02T03:44:38.517Z,0.34
2022-12-02T03:47:12.946Z,0.35
2022-12-02T03:49:43.928Z,0.35
2022-12-02T03:52:15.630Z,0.34
2022-12-02T03:58:12.122Z,0.24
2022-12-02T04:00:42.592Z,0.22
2022-12-02T04:03:13.794Z,0.23
2022-12-02T04:06:05.230Z,0.28
2022-12-02T04:08:50.582Z,0.29
2022-12-02T04:11:20.914Z,0.27
2022-12-02T04:13:54.543Z,0.27
2022-12-02T04:16:41.282Z,0.26
2022-12-02T04:19:18.906Z,0.23
2022-12-02T04:21:56.532Z,0.21
2022-12-02T04:24:35.864Z,0.22
2022-12-02T04:27:06.670Z,0.23
2022-12-02T04:29:41.327Z,0.25
2022-12-02T04:32:11.665Z,0.28
2022-12-02T04:34:39.775Z,0.26
2022-12-02T04:37:07.684Z,0.27
2022-12-02T04:39:35.616Z,0.30
2022-12-02T04:42:03.932Z,0.29
2022-12-02T04:44:32.948Z,0.28
2022-12-02T04:47:14.698Z,0.28
2022-12-02T04:49:42.604Z,0.26
2022-12-02T04:52:19.721Z,0.27
2022-12-02T04:54:53.616Z,0.29
2022-12-02T04:57:31.622Z,0.29
2022-12-02T05:00:10.550Z,0.28
2022-12-02T05:02:51.099Z,0.28
2022-12-02T05:05:24.328Z,0.28
2022-12-02T05:08:02.778Z,0.29
2022-12-02T05:10:32.482Z,0.30
2022-12-02T05:13:03.006Z,0.31
2022-12-02T05:15:35.911Z,0.28
2022-12-02T05:18:15.271Z,0.24
2022-12-02T05:20:43.555Z,0.22
2022-12-02T05:23:15.854Z,0.20
2022-12-02T05:25:51.079Z,0.20
2022-12-02T05:28:24.272Z,0.19
2022-12-02T05:30:52.291Z,0.18
2022-12-02T05:33:27.765Z,0.17
2022-12-02T05:36:00.842Z,0.12
2022-12-02T05:38:56.948Z,0.08
2022-12-02T05:41:39.908Z,0.10
2022-12-02T05:44:29.838Z,0.14
2022-12-02T05:47:17.972Z,0.17
2022-12-02T05:49:49.947Z,0.22
2022-12-02T05:52:27.751Z,0.23
2022-12-02T05:55:14.417Z,0.19
2022-12-02T05:57:50.376Z,0.16
2022-12-02T06:00:26.351Z,0.14
2022-12-02T06:03:08.881Z,0.12
2022-12-02T06:05:54.676Z,0.12
2022-12-02T06:08:39.207Z,0.13
2022-12-02T06:11:39.836Z,0.14
2022-12-02T06:14:24.753Z,0.14
2022-12-02T06:17:02.875Z,0.11
2022-12-02T06:19:47.847Z,0.10
2022-12-02T06:22:38.036Z,0.12
2022-12-02T06:25:27.494Z,0.09
2022-12-02T06:28:30.959Z,0.08
2022-12-02T06:31:13.055Z,0.03
2022-12-02T06:33:42.412Z,-0.02
2022-12-02T06:36:29.238Z,-0.05
2022-12-02T06:39:03.607Z,-0.06
2022-12-02T06:41:37.372Z,-0.09
2022-12-02T06:44:55.592Z,-0.10
2022-12-02T06:47:34.321Z,-0.13
2022-12-02T06:50:07.573Z,-0.13
2022-12-02T06:52:42.265Z,-0.13
2022-12-02T06:55:32.774Z,-0.13
2022-12-02T06:58:36.846Z,-0.15
2022-12-02T07:01:07.488Z,-0.15
2022-12-02T07:03:44.449Z,-0.12
2022-12-02T07:06:23.309Z,-0.11
2022-12-02T07:09:17.516Z,-0.12
2022-12-02T07:11:56.701Z,-0.17
2022-12-02T07:14:54.592Z,-0.21
2022-12-02T07:17:42.299Z,-0.25
2022-12-02T07:20:19.319Z,-0.27
2022-12-02T07:24:30.049Z,-0.26
2022-12-02T07:26:50.859Z,-0.28
2022-12-02T07:29:37.418Z,-0.33
2022-12-02T07:32:16.891Z,-0.35
2022-12-02T07:34:54.500Z,-0.35
2022-12-02T07:37:37.826Z,-0.36
2022-12-02T07:40:08.147Z,-0.33
2022-12-02T07:42:46.111Z,-0.31
2022-12-02T07:45:24.636Z,-0.33
2022-12-02T07:48:20.210Z,-0.36
2022-12-02T07:51:12.179Z,-0.36
2022-12-02T07:54:02.128Z,-0.37
2022-12-02T07:57:03.717Z,-0.37
2022-12-02T07:59:54.600Z,-0.35
2022-12-02T08:03:05.825Z,-0.35
2022-12-02T08:06:10.837Z,-0.35
2022-12-02T08:08:41.107Z,-0.33
2022-12-02T08:11:16.735Z,-0.27
2022-12-02T08:14:07.016Z,-0.22
2022-12-02T08:17:03.036Z,-0.25
2022-12-02T08:19:46.976Z,-0.29
2022-12-02T08:22:23.341Z,-0.32
2022-12-02T08:25:00.160Z,-0.32
2022-12-02T08:27:32.319Z,-0.30
2022-12-02T08:30:05.030Z,-0.26
2022-12-02T08:32:41.081Z,-0.26
2022-12-02T08:35:19.246Z,-0.29
2022-12-02T08:37:53.049Z,-0.30
2022-12-02T08:40:24.755Z,-0.32
2022-12-02T08:42:52.711Z,-0.33
2022-12-02T08:45:20.442Z,-0.26
2022-12-02T08:47:48.197Z,-0.25
2022-12-02T08:50:16.181Z,-0.28
2022-12-02T08:52:48.067Z,-0.29
2022-12-02T08:55:15.935Z,-0.39
2022-12-02T08:57:49.842Z,-0.42
2022-12-02T09:00:18.412Z,-0.38
2022-12-02T09:02:48.321Z,-0.35
2022-12-02T09:05:18.792Z,-0.33
2022-12-02T09:07:46.829Z,-0.34
2022-12-02T09:10:17.968Z,-0.34
2022-12-02T09:12:53.432Z,-0.34
2022-12-02T09:15:23.932Z,-0.34
2022-12-02T09:17:55.876Z,-0.36
2022-12-02T09:20:29.378Z,-0.39
2022-12-02T09:23:01.772Z,-0.41
2022-12-02T09:25:31.583Z,-0.52
2022-12-02T09:28:01.454Z,-0.54
2022-12-02T09:30:29.113Z,-0.54
2022-12-02T09:32:56.901Z,-0.52
2022-12-02T09:35:25.184Z,-0.50
2022-12-02T09:37:53.217Z,-0.47
2022-12-02T09:40:21.757Z,-0.46
2022-12-02T09:42:51.705Z,-0.48
2022-12-02T09:45:19.404Z,-0.49
2022-12-02T09:47:48.757Z,-0.48
2022-12-02T09:50:17.360Z,-0.49
2022-12-02T09:52:49.277Z,-0.51
2022-12-02T09:55:23.277Z,-0.50
2022-12-02T09:57:52.228Z,-0.51
2022-12-02T10:00:27.952Z,-0.55
2022-12-02T10:02:57.081Z,-0.54
2022-12-02T10:05:29.747Z,-0.53
2022-12-02T10:08:01.244Z,-0.52
2022-12-02T10:10:41.909Z,-0.54
2022-12-02T10:13:17.175Z,-0.57
2022-12-02T10:15:49.026Z,-0.59
2022-12-02T10:18:29.980Z,-0.60
2022-12-02T10:20:58.698Z,-0.58
2022-12-02T10:23:37.791Z,-0.59
2022-12-02T10:26:14.171Z,-0.62
2022-12-02T10:28:42.660Z,-0.62
2022-12-02T10:31:15.087Z,-0.64
2022-12-02T10:34:02.448Z,-0.65
2022-12-02T10:36:34.348Z,-0.62
2022-12-02T10:39:20.987Z,-0.61
2022-12-02T10:42:17.455Z,-0.62
2022-12-02T10:45:07.489Z,-0.65
2022-12-02T10:47:35.312Z,-0.64
2022-12-02T10:50:14.287Z,-0.58
2022-12-02T10:52:50.179Z,-0.55
2022-12-02T10:55:23.375Z,-0.51
2022-12-02T10:57:53.225Z,-0.50
2022-12-02T11:00:38.365Z,-0.50
2022-12-02T11:03:10.434Z,-0.52
2022-12-02T11:05:43.902Z,-0.58
2022-12-02T11:08:30.376Z,-0.62
2022-12-02T11:11:41.859Z,-0.63
2022-12-02T11:17:13.015Z,-0.61
2022-12-02T11:19:49.772Z,-0.57
2022-12-02T11:23:12.624Z,-0.58
2022-12-02T11:25:47.086Z,-0.63
2022-12-02T11:28:40.762Z,-0.63
2022-12-02T11:31:13.873Z,-0.64
2022-12-02T11:33:53.121Z,-0.62
2022-12-02T11:36:24.520Z,-0.62
2022-12-02T11:38:56.522Z,-0.64
2022-12-02T11:41:32.983Z,-0.68
2022-12-02T11:44:28.905Z,-0.72
2022-12-02T11:47:04.503Z,-0.75
2022-12-02T11:49:40.672Z,-0.75
2022-12-02T11:52:18.102Z,-0.77
2022-12-02T11:55:11.229Z,-0.80
2022-12-02T11:57:55.527Z,-0.84
2022-12-02T12:00:39.599Z,-0.89
2022-12-02T12:03:17.374Z,-0.92
2022-12-02T12:06:14.231Z,-0.90
2022-12-02T12:08:59.188Z,-0.91
2022-12-02T12:11:31.540Z,-0.97
2022-12-02T12:14:11.511Z,-0.98
2022-12-02T12:16:53.812Z,-0.99
2022-12-02T12:19:30.057Z,-0.97
2022-12-02T12:22:00.398Z,-0.92
2022-12-02T12:24:34.001Z,-0.89
2022-12-02T12:27:04.914Z,-0.90
2022-12-02T12:29:37.876Z,-0.94
2022-12-02T12:32:07.638Z,-0.95
2022-12-02T12:34:35.900Z,-0.96
2022-12-02T12:37:03.966Z,-0.92
2022-12-02T12:39:33.241Z,-0.89
2022-12-02T12:42:03.502Z,-0.89
2022-12-02T12:44:33.656Z,-0.91
2022-12-02T12:47:03.585Z,-0.93
2022-12-02T12:49:34.641Z,-0.94
2022-12-02T12:52:07.969Z,-0.92
2022-12-02T12:54:36.729Z,-0.90
2022-12-02T12:57:07.287Z,-0.87
2022-12-02T12:59:35.340Z,-0.86
2022-12-02T13:02:03.456Z,-0.86
2022-12-02T13:04:31.370Z,-0.85
2022-12-02T13:07:01.505Z,-0.87
2022-12-02T13:09:29.231Z,-0.88
2022-12-02T13:11:56.880Z,-0.89
2022-12-02T13:14:24.686Z,-0.89
2022-12-02T13:16:52.425Z,-0.91
2022-12-02T13:19:28.320Z,-0.92
2022-12-02T13:21:57.638Z,-0.93
2022-12-02T13:24:27.602Z,-0.91
2022-12-02T13:26:55.247Z,-0.88
2022-12-02T13:29:23.506Z,-0.87
2022-12-02T13:31:54.363Z,-0.90
2022-12-02T13:34:26.705Z,-0.95
2022-12-02T13:37:00.258Z,-0.97
2022-12-02T13:39:28.524Z,-0.96
2022-12-02T13:41:59.070Z,-0.96
2022-12-02T13:44:38.843Z,-0.96
2022-12-02T13:47:09.426Z,-0.98
2022-12-02T13:49:37.414Z,-0.98
2022-12-02T13:52:12.844Z,-1.00
2022-12-02T13:54:40.932Z,-1.03
2022-12-02T13:57:09.022Z,-1.06
2022-12-02T13:59:38.601Z,-1.06
2022-12-02T14:02:07.106Z,-1.06
2022-12-02T14:04:34.948Z,-1.04
2022-12-02T14:07:03.165Z,-1.02
2022-12-02T14:09:31.080Z,-0.99
2022-12-02T14:11:58.849Z,-0.96
2022-12-02T14:14:26.426Z,-0.95
2022-12-02T14:16:54.024Z,-0.95
2022-12-02T14:19:21.550Z,-0.95
2022-12-02T14:21:51.978Z,-0.95
2022-12-02T14:24:19.718Z,-0.91
2022-12-02T14:26:47.377Z,-0.87
2022-12-02T14:29:18.104Z,-0.86
2022-12-02T14:31:55.022Z,-0.86
2022-12-02T14:34:36.177Z,-0.89
2022-12-02T14:37:05.142Z,-0.90
2022-12-02T14:39:34.162Z,-0.91
2022-12-02T14:42:03.854Z,-0.90
2022-12-02T14:44:31.323Z,-0.86
2022-12-02T14:46:59.161Z,-0.85
2022-12-02T14:49:42.636Z,-0.88
2022-12-02T14:52:10.992Z,-0.95
2022-12-02T14:54:39.083Z,-1.00
2022-12-02T14:57:13.659Z,-1.02
2022-12-02T14:59:42.072Z,-1.05
2022-12-02T15:02:11.212Z,-1.08
2022-12-02T15:04:38.923Z,-1.10
2022-12-02T15:07:15.466Z,-1.11
2022-12-02T15:09:43.085Z,-1.13
2022-12-02T15:12:10.593Z,-1.13
2022-12-02T15:14:38.067Z,-1.11
2022-12-02T15:17:07.479Z,-1.08
2022-12-02T15:19:37.826Z,-1.10
2022-12-02T15:22:08.477Z,-1.14
2022-12-02T15:24:36.235Z,-1.14
2022-12-02T15:27:03.857Z,-1.17
2022-12-02T15:29:31.535Z,-1.22
2022-12-02T15:31:59.310Z,-1.24
2022-12-02T15:34:26.943Z,-1.21
2022-12-02T15:36:54.633Z,-1.21
2022-12-02T15:39:26.558Z,-1.23
2022-12-02T15:41:54.246Z,-1.23
2022-12-02T15:44:21.941Z,-1.22
2022-12-02T15:46:49.509Z,-1.21
2022-12-02T15:49:17.208Z,-1.19
2022-12-02T15:51:46.835Z,-1.20
2022-12-02T15:54:14.436Z,-1.20
2022-12-02T15:56:44.155Z,-1.16
2022-12-02T15:59:16.027Z,-1.13
2022-12-02T16:01:43.739Z,-1.11
2022-12-02T16:04:11.700Z,-1.11
2022-12-02T16:06:39.378Z,-1.10
2022-12-02T16:09:12.510Z,-1.09
2022-12-02T16:11:42.952Z,-1.06
2022-12-02T16:14:13.697Z,-1.04
2022-12-02T16:16:42.697Z,-1.03
2022-12-02T16:19:11.842Z,-1.03
2022-12-02T16:21:56.559Z,-1.04
2022-12-02T16:24:34.200Z,-1.06
2022-12-02T16:27:16.214Z,-1.09
2022-12-02T16:29:44.269Z,-1.09
2022-12-02T16:32:20.235Z,-1.08
2022-12-02T16:35:00.664Z,-1.09
2022-12-02T16:37:30.367Z,-1.07
2022-12-02T16:39:58.093Z,-1.05
2022-12-02T16:42:27.186Z,-1.03
2022-12-02T16:44:56.326Z,-1.00
2022-12-02T16:47:24.269Z,-1.01
2022-12-02T16:49:52.148Z,-1.03
2022-12-02T16:52:19.927Z,-1.04
2022-12-02T16:54:57.395Z,-1.04
2022-12-02T16:57:26.967Z,-1.06
2022-12-02T16:59:54.557Z,-1.06
2022-12-02T17:02:25.097Z,-1.05
2022-12-02T17:05:01.560Z,-1.05
2022-12-02T17:07:33.947Z,-1.07
2022-12-02T17:10:05.181Z,-1.10
2022-12-02T17:12:33.054Z,-1.10
2022-12-02T17:15:03.605Z,-1.08
2022-12-02T17:17:47.581Z,-1.10
2022-12-02T17:20:19.787Z,-1.12
2022-12-02T17:22:51.892Z,-1.14
2022-12-02T17:25:23.551Z,-1.14
2022-12-02T17:27:55.566Z,-1.12
2022-12-02T17:30:29.773Z,-1.13
2022-12-02T17:33:06.248Z,-1.17
2022-12-02T17:35:43.447Z,-1.19
2022-12-02T17:38:11.232Z,-1.22
2022-12-02T17:40:49.107Z,-1.22
2022-12-02T17:43:22.464Z,-1.19
2022-12-02T17:45:56.808Z,-1.20
2022-12-02T17:48:40.272Z,-1.30
2022-12-02T17:51:13.594Z,-1.38
2022-12-02T17:53:43.630Z,-1.39
2022-12-02T17:56:28.520Z,-1.37
2022-12-02T17:59:02.124Z,-1.36
2022-12-02T18:01:35.444Z,-1.38
2022-12-02T18:04:17.994Z,-1.40
2022-12-02T18:07:10.158Z,-1.46
2022-12-02T18:09:45.852Z,-1.47
2022-12-02T18:12:18.978Z,-1.46
2022-12-02T18:15:19.017Z,-1.45
2022-12-02T18:17:57.444Z,-1.45
2022-12-02T18:20:32.633Z,-1.46
2022-12-02T18:23:01.925Z,-1.45
2022-12-02T18:25:32.214Z,-1.40
2022-12-02T18:28:03.059Z,-1.38
2022-12-02T18:30:31.120Z,-1.40
2022-12-02T18:32:59.015Z,-1.42
2022-12-02T18:35:27.795Z,-1.43
2022-12-02T18:37:55.665Z,-1.40
2022-12-02T18:40:27.163Z,-1.37
2022-12-02T18:43:14.819Z,-1.37
2022-12-02T18:45:46.505Z,-1.41
2022-12-02T18:48:28.423Z,-1.42
2022-12-02T18:50:56.674Z,-1.43
2022-12-02T18:53:27.231Z,-1.41
2022-12-02T18:56:00.069Z,-1.40
2022-12-02T18:58:28.272Z,-1.39
2022-12-02T19:00:55.945Z,-1.44
2022-12-02T19:03:23.909Z,-1.51
2022-12-02T19:05:54.451Z,-1.55
2022-12-02T19:08:22.798Z,-1.58
2022-12-02T19:10:50.528Z,-1.57
2022-12-02T19:13:18.156Z,-1.56
2022-12-02T19:15:48.953Z,-1.55
2022-12-02T19:18:16.889Z,-1.56
2022-12-02T19:20:47.710Z,-1.60
2022-12-02T19:23:19.494Z,-1.65
2022-12-02T19:25:50.821Z,-1.67
2022-12-02T19:28:29.023Z,-1.67
2022-12-02T19:31:07.900Z,-1.66
2022-12-02T19:33:38.188Z,-1.66
2022-12-02T19:36:09.102Z,-1.66
2022-12-02T19:39:06.888Z,-1.70
2022-12-02T19:41:49.324Z,-1.72
2022-12-02T19:44:39.562Z,-1.70
2022-12-02T19:47:16.272Z,-1.67
2022-12-02T19:50:32.718Z,-1.67
2022-12-02T19:53:08.000Z,-1.71
2022-12-02T19:55:41.564Z,-1.74
2022-12-02T19:58:30.337Z,-1.70
2022-12-02T20:01:00.986Z,-1.66
2022-12-02T20:03:33.312Z,-1.60
2022-12-02T20:06:02.671Z,-1.57
2022-12-02T20:08:30.707Z,-1.53
2022-12-02T20:11:10.626Z,-1.54
2022-12-02T20:13:46.555Z,-1.56
2022-12-02T20:16:20.531Z,-1.58
2022-12-02T20:19:05.315Z,-1.59
2022-12-02T20:21:45.354Z,-1.59
2022-12-02T20:24:13.141Z,-1.61
2022-12-02T20:26:50.734Z,-1.60
2022-12-02T20:29:23.982Z,-1.62
2022-12-02T20:31:57.959Z,-1.60
2022-12-02T20:34:34.700Z,-1.60
2022-12-02T20:37:06.549Z,-1.60
2022-12-02T20:39:42.223Z,-1.66
2022-12-02T20:42:22.188Z,-1.66
2022-12-02T20:44:53.266Z,-1.67
2022-12-02T20:47:23.625Z,-1.68
2022-12-02T20:50:05.151Z,-1.67
2022-12-02T20:53:14.128Z,-1.66
2022-12-02T20:55:49.310Z,-1.66
2022-12-02T20:58:21.233Z,-1.69
2022-12-02T21:00:52.985Z,-1.69
2022-12-02T21:03:29.531Z,-1.71
2022-12-02T21:06:04.393Z,-1.70
2022-12-02T21:08:37.992Z,-1.71
2022-12-02T21:11:10.496Z,-1.73
2022-12-02T21:13:53.806Z,-1.73
2022-12-02T21:16:55.527Z,-1.72
2022-12-02T21:19:31.136Z,-1.72
2022-12-02T21:22:03.181Z,-1.70
2022-12-02T21:24:58.003Z,-1.69
2022-12-02T21:27:37.982Z,-1.69
2022-12-02T21:30:23.525Z,-1.71
2022-12-02T21:33:24.825Z,-1.70
2022-12-02T21:36:01.805Z,-1.67
2022-12-02T21:38:34.006Z,-1.67
2022-12-02T21:41:24.600Z,-1.63
2022-12-02T21:43:57.067Z,-1.67
2022-12-02T21:46:25.094Z,-1.64
2022-12-02T21:49:07.811Z,-1.62
2022-12-02T21:51:44.298Z,-1.60
2022-12-02T21:54:56.763Z,-1.60
2022-12-02T21:57:35.604Z,-1.60
2022-12-02T22:00:15.541Z,-1.58
2022-12-02T22:02:58.119Z,-1.58
2022-12-02T22:05:42.916Z,-1.59
2022-12-02T22:08:17.320Z,-1.61
2022-12-02T22:11:05.985Z,-1.61
2022-12-02T22:13:37.364Z,-1.60
2022-12-02T22:16:21.287Z,-1.56
2022-12-02T22:18:54.243Z,-1.54
2022-12-02T22:21:22.925Z,-1.62
2022-12-02T22:23:55.806Z,-1.64
2022-12-02T22:26:30.972Z,-1.63
2022-12-02T22:29:13.997Z,-1.67
2022-12-02T22:31:48.410Z,-1.67
2022-12-02T22:34:21.179Z,-1.65
2022-12-02T22:36:53.446Z,-1.63
2022-12-02T22:39:26.368Z,-1.66
2022-12-02T22:42:01.837Z,-1.67
2022-12-02T22:45:15.311Z,-1.72
2022-12-02T22:47:44.250Z,-1.76
2022-12-02T22:50:23.177Z,-1.78
2022-12-02T22:52:56.015Z,-1.77
2022-12-02T22:55:31.564Z,-1.82
2022-12-02T22:58:15.473Z,-1.84
2022-12-02T23:00:52.161Z,-1.86
2022-12-02T23:03:32.306Z,-1.84
2022-12-02T23:06:52.711Z,-1.82
2022-12-02T23:09:24.366Z,-1.82
2022-12-02T23:11:57.748Z,-1.84
2022-12-02T23:14:36.326Z,-1.85
2022-12-02T23:17:20.501Z,-1.83
2022-12-02T23:20:10.985Z,-1.82
2022-12-02T23:22:44.373Z,-1.85
2022-12-02T23:25:20.406Z,-1.85
2022-12-02T23:27:49.782Z,-1.83
2022-12-02T23:30:29.919Z,-1.80
2022-12-02T23:33:09.853Z,-1.80
2022-12-02T23:35:51.734Z,-1.82
2022-12-02T23:38:19.914Z,-1.80
2022-12-02T23:41:07.402Z,-1.78
2022-12-02T23:43:47.190Z,-1.81
2022-12-02T23:46:18.737Z,-1.81
2022-12-02T23:48:57.499Z,-1.78
2022-12-02T23:51:39.817Z,-1.75
2022-12-02T23:54:15.447Z,-1.72
2022-12-02T23:56:46.605Z,-1.72
2022-12-02T23:59:26.726Z,-1.73
